Time;durP1;ratioP1;P1;durP2;ratioP2;P2;SDS_P1;SDS_P2;PMS_P1;PMS_P2;Temp;Humidity;BMP_temperature;BMP_pressure;BME280_temperature;BME280_humidity;BME280_pressure;Samples;Min_cycle;Max_cycle;Signal;HPM_P1;HPM_P2
2024/01/01 00:00:50;;;;;;;221.83;128.53;;;;;;;;;;5016575;28;20215;-32
2024/01/01 00:03:17;;;;;;;270.33;151.90;;;;;;;;;;5025910;28;20305;-34
2024/01/01 00:05:44;;;;;;;256.60;151.33;;;;;;;;;;5024873;28;20250;-35
2024/01/01 00:08:13;;;;;;;186.37;109.60;;;;;;;;;;5021201;28;20235;-34
2024/01/01 00:10:40;;;;;;;220.47;128.60;;;;;;;;;;5022343;28;20208;-30
2024/01/01 00:13:07;;;;;;;165.07;96.27;;;;;;;;;;5028383;28;20206;-36
2024/01/01 00:15:34;;;;;;;156.40;89.47;;;;;;;;;;5028096;28;20222;-36
2024/01/01 00:18:02;;;;;;;134.33;78.77;;;;;;;;;;5018835;28;20207;-32
2024/01/01 00:20:29;;;;;;;61.30;35.77;;;;;;;;;;5028660;28;20257;-32
2024/01/01 00:22:56;;;;;;;204.30;118.33;;;;;;;;;;5027376;28;20247;-33
2024/01/01 00:25:25;;;;;;;286.40;165.73;;;;;;;;;;5027380;28;20261;-38
2024/01/01 00:27:52;;;;;;;256.60;148.37;;;;;;;;;;5019981;28;20215;-36
2024/01/01 00:30:20;;;;;;;220.83;128.03;;;;;;;;;;5028227;28;20607;-32
2024/01/01 00:32:47;;;;;;;200.77;115.60;;;;;;;;;;5025847;28;20294;-32
2024/01/01 00:35:14;;;;;;;166.87;95.57;;;;;;;;;;5024702;28;20272;-33
2024/01/01 00:37:42;;;;;;;157.60;91.60;;;;;;;;;;5026440;28;20540;-35
2024/01/01 00:40:10;;;;;;;154.40;93.33;;;;;;;;;;5028489;28;20328;-36
2024/01/01 00:42:40;;;;;;;153.33;89.57;;;;;;;;;;5025968;28;20271;-39
2024/01/01 00:45:08;;;;;;;145.63;88.43;;;;;;;;;;5018264;28;20254;-39
2024/01/01 00:47:35;;;;;;;148.77;87.90;;;;;;;;;;5025389;28;20203;-39
2024/01/01 00:50:03;;;;;;;121.37;72.80;;;;;;;;;;5016650;28;20234;-36
2024/01/01 00:52:31;;;;;;;132.17;79.23;;;;;;;;;;5023986;28;20223;-36
2024/01/01 00:54:58;;;;;;;144.27;86.13;;;;;;;;;;5026880;28;20230;-34
2024/01/01 00:57:25;;;;;;;171.60;100.20;;;;;;;;;;5027615;28;20256;-35
2024/01/01 00:59:54;;;;;;;160.10;95.13;;;;;;;;;;5024178;28;20271;-36
2024/01/01 01:02:21;;;;;;;149.07;89.10;;;;;;;;;;5025200;28;20243;-34
2024/01/01 01:04:48;;;;;;;139.43;87.23;;;;;;;;;;5021754;28;20234;-35
2024/01/01 01:07:15;;;;;;;166.83;98.60;;;;;;;;;;5021773;28;20268;-35
2024/01/01 01:09:43;;;;;;;161.87;95.50;;;;;;;;;;5022609;28;20830;-35
2024/01/01 01:12:10;;;;;;;183.30;107.87;;;;;;;;;;5026427;28;20237;-33
2024/01/01 01:14:37;;;;;;;146.37;88.10;;;;;;;;;;5025544;28;20291;-35
2024/01/01 01:17:06;;;;;;;177.83;105.23;;;;;;;;;;5020524;28;20302;-34
2024/01/01 01:19:33;;;;;;;182.40;105.87;;;;;;;;;;5014900;28;20207;-35
2024/01/01 01:22:00;;;;;;;172.10;97.13;;;;;;;;;;5026390;28;20253;-35
2024/01/01 01:24:27;;;;;;;149.53;86.97;;;;;;;;;;5022105;28;20314;-35
2024/01/01 01:26:55;;;;;;;138.80;80.27;;;;;;;;;;5015629;28;20234;-37
2024/01/01 01:29:22;;;;;;;149.73;85.77;;;;;;;;;;5022978;28;20217;-34
2024/01/01 01:31:49;;;;;;;135.40;81.37;;;;;;;;;;5023595;28;20322;-36
2024/01/01 01:34:18;;;;;;;127.40;78.57;;;;;;;;;;5022910;28;20226;-35
2024/01/01 01:36:45;;;;;;;129.50;73.73;;;;;;;;;;5027788;28;20215;-30
2024/01/01 01:39:12;;;;;;;128.17;76.20;;;;;;;;;;5025691;28;20234;-32
2024/01/01 01:41:40;;;;;;;128.30;75.30;;;;;;;;;;5020911;28;20302;-38
2024/01/01 01:44:07;;;;;;;146.97;91.67;;;;;;;;;;5022067;28;20317;-32
2024/01/01 01:46:35;;;;;;;144.77;84.63;;;;;;;;;;5026852;28;20206;-30
2024/01/01 01:49:02;;;;;;;134.97;78.37;;;;;;;;;;5021405;28;20282;-37
2024/01/01 01:51:31;;;;;;;128.00;76.70;;;;;;;;;;5019133;28;20230;-35
2024/01/01 01:53:59;;;;;;;123.67;73.47;;;;;;;;;;5028247;28;20288;-36
2024/01/01 01:56:28;;;;;;;118.77;72.53;;;;;;;;;;5029949;28;20309;-37
2024/01/01 01:58:55;;;;;;;138.30;84.77;;;;;;;;;;5021988;28;20334;-33
2024/01/01 02:01:22;;;;;;;133.00;79.37;;;;;;;;;;5017714;28;20211;-39
2024/01/01 02:03:49;;;;;;;126.20;77.03;;;;;;;;;;5027325;28;20213;-34
2024/01/01 02:06:17;;;;;;;136.20;80.10;;;;;;;;;;5028854;28;20209;-34
2024/01/01 02:08:45;;;;;;;137.03;86.43;;;;;;;;;;5026374;28;20209;-34
2024/01/01 02:11:12;;;;;;;140.20;83.70;;;;;;;;;;5026429;28;20233;-34
2024/01/01 02:13:40;;;;;;;137.90;77.93;;;;;;;;;;5030045;28;20207;-33
2024/01/01 02:16:07;;;;;;;120.60;71.67;;;;;;;;;;5025038;28;20292;-40
2024/01/01 02:18:34;;;;;;;107.57;66.60;;;;;;;;;;5025601;28;20326;-32
2024/01/01 02:21:01;;;;;;;108.30;62.90;;;;;;;;;;5022699;28;20402;-33
2024/01/01 02:23:30;;;;;;;82.37;48.63;;;;;;;;;;5032949;28;20203;-31
2024/01/01 02:25:57;;;;;;;87.23;53.33;;;;;;;;;;5032641;28;20288;-34
2024/01/01 02:28:24;;;;;;;73.13;45.30;;;;;;;;;;5028345;28;20297;-34
2024/01/01 02:30:51;;;;;;;64.67;40.30;;;;;;;;;;5029345;28;20438;-35
2024/01/01 02:33:19;;;;;;;46.53;27.77;;;;;;;;;;5033031;28;20247;-38
2024/01/01 02:35:46;;;;;;;60.63;37.50;;;;;;;;;;5033358;28;20278;-35
2024/01/01 02:38:13;;;;;;;44.63;29.20;;;;;;;;;;5026588;28;20221;-35
2024/01/01 02:40:42;;;;;;;29.90;16.87;;;;;;;;;;5029780;28;20249;-33
2024/01/01 02:43:09;;;;;;;20.17;11.80;;;;;;;;;;5026470;28;20222;-33
2024/01/01 02:45:36;;;;;;;9.67;5.67;;;;;;;;;;5034335;28;20222;-32
2024/01/01 02:48:04;;;;;;;6.67;4.47;;;;;;;;;;5024732;28;20235;-34
2024/01/01 02:50:31;;;;;;;7.10;3.97;;;;;;;;;;5017827;28;20203;-32
2024/01/01 02:52:58;;;;;;;11.63;6.20;;;;;;;;;;5013118;28;20319;-34
2024/01/01 02:55:25;;;;;;;3.73;2.60;;;;;;;;;;5026218;28;20693;-34
2024/01/01 02:57:54;;;;;;;7.90;4.50;;;;;;;;;;5029906;28;20293;-35
2024/01/01 03:00:21;;;;;;;5.07;3.03;;;;;;;;;;5030021;28;20226;-33
2024/01/01 03:02:50;;;;;;;3.90;3.47;;;;;;;;;;5025806;28;20269;-35
2024/01/01 03:05:18;;;;;;;11.67;5.23;;;;;;;;;;5022719;28;20215;-36
2024/01/01 03:07:45;;;;;;;17.67;10.37;;;;;;;;;;5030915;28;20209;-36
2024/01/01 03:10:12;;;;;;;30.63;16.53;;;;;;;;;;5023356;28;20213;-34
2024/01/01 03:12:39;;;;;;;25.83;14.00;;;;;;;;;;5021774;28;20414;-32
2024/01/01 03:15:09;;;;;;;26.10;14.83;;;;;;;;;;5031468;28;20312;-32
2024/01/01 03:17:36;;;;;;;20.40;11.57;;;;;;;;;;5031772;28;20214;-39
2024/01/01 03:20:04;;;;;;;18.73;11.03;;;;;;;;;;5027236;28;20210;-36
2024/01/01 03:22:31;;;;;;;21.43;13.47;;;;;;;;;;5026952;28;20649;-35
2024/01/01 03:24:58;;;;;;;21.13;12.40;;;;;;;;;;5032958;28;20262;-32
2024/01/01 03:27:25;;;;;;;17.33;13.00;;;;;;;;;;5033128;28;20274;-36
2024/01/01 03:29:53;;;;;;;28.47;16.13;;;;;;;;;;5030383;28;20226;-39
2024/01/01 03:32:21;;;;;;;26.03;14.37;;;;;;;;;;5032945;28;20744;-36
2024/01/01 03:34:49;;;;;;;19.53;12.90;;;;;;;;;;5033123;28;20233;-34
2024/01/01 03:37:17;;;;;;;18.33;12.33;;;;;;;;;;5033322;28;20227;-39
2024/01/01 03:39:48;;;;;;;20.77;13.23;;;;;;;;;;5024614;28;20207;-33
2024/01/01 03:42:15;;;;;;;22.80;14.40;;;;;;;;;;5025158;28;20209;-36
2024/01/01 03:44:42;;;;;;;22.83;14.40;;;;;;;;;;5032026;28;20286;-33
2024/01/01 03:47:09;;;;;;;22.43;12.00;;;;;;;;;;5028001;28;20294;-34
2024/01/01 03:49:39;;;;;;;22.73;12.60;;;;;;;;;;5023403;28;20266;-38
2024/01/01 03:52:07;;;;;;;17.07;10.70;;;;;;;;;;5025650;28;20232;-36
2024/01/01 03:54:34;;;;;;;15.57;9.70;;;;;;;;;;5031660;28;20220;-34
2024/01/01 03:57:01;;;;;;;14.37;8.17;;;;;;;;;;5031972;28;20260;-37
2024/01/01 03:59:29;;;;;;;10.57;6.83;;;;;;;;;;5026009;28;20286;-34
2024/01/01 04:01:56;;;;;;;10.33;6.33;;;;;;;;;;5015561;28;20246;-32
2024/01/01 04:04:23;;;;;;;11.07;5.97;;;;;;;;;;5032823;28;20250;-37
2024/01/01 04:06:51;;;;;;;11.90;6.97;;;;;;;;;;5033094;28;20241;-32
2024/01/01 04:09:19;;;;;;;12.83;7.53;;;;;;;;;;5025659;28;20203;-33
2024/01/01 04:11:47;;;;;;;17.53;7.90;;;;;;;;;;5029528;28;20202;-31
2024/01/01 04:14:14;;;;;;;4.17;2.47;;;;;;;;;;5032929;28;20405;-31
2024/01/01 04:16:42;;;;;;;5.67;4.00;;;;;;;;;;5029115;28;20318;-32
2024/01/01 04:19:12;;;;;;;9.27;4.13;;;;;;;;;;5027894;28;20219;-30
2024/01/01 04:21:40;;;;;;;3.80;2.23;;;;;;;;;;5027807;28;20206;-37
2024/01/01 04:24:08;;;;;;;4.97;1.87;;;;;;;;;;5030987;28;20231;-33
2024/01/01 04:26:35;;;;;;;2.10;1.70;;;;;;;;;;5032389;28;20237;-31
2024/01/01 04:29:02;;;;;;;4.33;1.80;;;;;;;;;;5032215;28;20636;-33
2024/01/01 04:31:30;;;;;;;3.10;1.60;;;;;;;;;;5029809;28;20238;-35
2024/01/01 04:33:57;;;;;;;3.40;1.80;;;;;;;;;;5032078;28;20236;-33
2024/01/01 04:36:24;;;;;;;4.60;2.40;;;;;;;;;;5032969;28;20209;-31
2024/01/01 04:38:51;;;;;;;1.67;1.27;;;;;;;;;;5027531;28;20675;-33
2024/01/01 04:41:20;;;;;;;4.13;2.10;;;;;;;;;;5025155;28;20266;-31
2024/01/01 04:43:50;;;;;;;4.37;1.50;;;;;;;;;;5032040;28;20713;-33
2024/01/01 04:46:17;;;;;;;5.63;2.07;;;;;;;;;;5024714;28;20302;-29
2024/01/01 04:48:44;;;;;;;4.60;2.27;;;;;;;;;;5027800;28;20199;-33
2024/01/01 04:51:11;;;;;;;4.97;2.50;;;;;;;;;;5023274;28;20214;-37
2024/01/01 04:53:38;;;;;;;5.33;1.60;;;;;;;;;;5032106;28;20222;-32
2024/01/01 04:56:06;;;;;;;2.37;1.40;;;;;;;;;;5031980;28;20294;-34
2024/01/01 04:58:35;;;;;;;2.17;1.20;;;;;;;;;;5029718;28;20266;-31
2024/01/01 05:01:02;;;;;;;3.93;1.73;;;;;;;;;;5025086;28;20207;-32
2024/01/01 05:03:29;;;;;;;2.30;1.40;;;;;;;;;;5031665;28;20626;-34
2024/01/01 05:05:56;;;;;;;7.93;1.97;;;;;;;;;;5032500;28;20230;-35
2024/01/01 05:08:23;;;;;;;3.50;2.07;;;;;;;;;;5027967;28;20230;-32
2024/01/01 05:10:50;;;;;;;4.03;1.87;;;;;;;;;;5027350;28;20287;-29
2024/01/01 05:13:18;;;;;;;3.50;2.20;;;;;;;;;;5031691;28;20226;-36
2024/01/01 05:15:46;;;;;;;4.13;1.80;;;;;;;;;;5029410;28;20309;-33
2024/01/01 05:18:13;;;;;;;6.23;1.20;;;;;;;;;;5030964;28;20214;-37
2024/01/01 05:20:40;;;;;;;2.77;1.63;;;;;;;;;;5027102;28;20271;-31
2024/01/01 05:23:07;;;;;;;2.17;1.33;;;;;;;;;;5031339;28;20203;-38
2024/01/01 05:25:35;;;;;;;1.57;1.20;;;;;;;;;;5030474;28;20309;-33
2024/01/01 05:28:05;;;;;;;3.90;1.20;;;;;;;;;;5029144;28;20218;-34
2024/01/01 05:30:32;;;;;;;1.80;1.53;;;;;;;;;;5026315;28;20238;-32
2024/01/01 05:33:01;;;;;;;1.00;0.80;;;;;;;;;;5029266;28;20222;-34
2024/01/01 05:35:28;;;;;;;5.43;1.70;;;;;;;;;;5031043;28;20229;-33
2024/01/01 05:37:55;;;;;;;2.03;1.10;;;;;;;;;;5025636;28;20218;-29
2024/01/01 05:40:22;;;;;;;0.87;0.73;;;;;;;;;;5015115;28;20495;-33
2024/01/01 05:42:49;;;;;;;2.03;1.07;;;;;;;;;;5031545;28;20214;-30
2024/01/01 05:45:17;;;;;;;3.93;1.20;;;;;;;;;;5031419;28;20258;-33
2024/01/01 05:47:44;;;;;;;1.20;0.70;;;;;;;;;;5025797;28;20206;-33
2024/01/01 05:50:12;;;;;;;0.97;0.80;;;;;;;;;;5029120;28;20290;-36
2024/01/01 05:52:39;;;;;;;2.40;0.90;;;;;;;;;;5028603;28;20211;-32
2024/01/01 05:55:09;;;;;;;3.57;1.10;;;;;;;;;;5034797;28;20228;-36
2024/01/01 05:57:36;;;;;;;1.63;0.90;;;;;;;;;;5032556;28;20301;-32
2024/01/01 06:00:04;;;;;;;4.83;1.37;;;;;;;;;;5024227;28;20210;-31
2024/01/01 06:02:32;;;;;;;1.87;1.00;;;;;;;;;;5035103;28;20220;-33
2024/01/01 06:04:59;;;;;;;4.23;1.23;;;;;;;;;;5034954;28;20234;-33
2024/01/01 06:07:29;;;;;;;0.53;0.53;;;;;;;;;;5024170;28;20210;-31
2024/01/01 06:09:57;;;;;;;1.93;0.77;;;;;;;;;;5029570;28;20571;-32
2024/01/01 06:12:24;;;;;;;2.33;0.90;;;;;;;;;;5025052;28;20354;-35
2024/01/01 06:14:52;;;;;;;4.07;1.10;;;;;;;;;;5026743;28;20333;-33
2024/01/01 06:17:19;;;;;;;1.60;1.00;;;;;;;;;;5031202;28;20559;-33
2024/01/01 06:19:48;;;;;;;4.33;1.30;;;;;;;;;;5033520;28;20217;-31
2024/01/01 06:22:15;;;;;;;1.17;0.83;;;;;;;;;;5025578;28;20207;-35
2024/01/01 06:24:44;;;;;;;1.40;0.80;;;;;;;;;;5031351;28;20219;-34
2024/01/01 06:27:11;;;;;;;2.90;1.10;;;;;;;;;;5031445;28;20207;-34
2024/01/01 06:29:38;;;;;;;1.90;1.30;;;;;;;;;;5028313;28;20333;-32
2024/01/01 06:32:06;;;;;;;2.50;1.17;;;;;;;;;;5018282;28;20227;-35
2024/01/01 06:34:33;;;;;;;1.87;0.90;;;;;;;;;;5031617;28;20223;-32
2024/01/01 06:39:29;;;;;;;0.93;0.73;;;;;;;;;;5046366;28;20308;-34
2024/01/01 06:41:57;;;;;;;5.40;1.10;;;;;;;;;;5046488;28;20713;-30
2024/01/01 06:44:27;;;;;;;2.17;1.00;;;;;;;;;;5045480;28;20340;-35
2024/01/01 06:46:54;;;;;;;3.23;1.00;;;;;;;;;;5052371;28;20213;-33
2024/01/01 06:49:21;;;;;;;1.13;0.70;;;;;;;;;;5034612;28;20214;-33
2024/01/01 06:51:50;;;;;;;3.30;1.03;;;;;;;;;;5043793;28;20301;-35
2024/01/01 06:54:17;;;;;;;1.30;0.57;;;;;;;;;;5052805;28;20226;-32
2024/01/01 06:56:44;;;;;;;2.43;1.03;;;;;;;;;;5054571;28;20259;-36
2024/01/01 06:59:13;;;;;;;5.07;1.30;;;;;;;;;;5050249;28;20293;-34
2024/01/01 07:01:41;;;;;;;2.10;0.70;;;;;;;;;;5052023;28;20206;-39
2024/01/01 07:04:09;;;;;;;4.30;1.00;;;;;;;;;;5052370;28;20229;-33
2024/01/01 07:06:36;;;;;;;3.90;1.17;;;;;;;;;;5049877;28;20301;-37
2024/01/01 07:09:05;;;;;;;0.87;0.70;;;;;;;;;;5047610;28;20241;-32
2024/01/01 07:11:38;;;;;;;5.83;0.90;;;;;;;;;;5050849;28;20201;-36
2024/01/01 07:17:01;;;;;;;2.37;0.93;;;;;;;;;;5053799;28;20201;-34
2024/01/01 07:19:29;;;;;;;4.37;1.40;;;;;;;;;;5040628;28;20564;-31
2024/01/01 07:21:55;;;;;;;5.70;1.27;;;;;;;;;;5043722;28;20660;-30
2024/01/01 07:24:23;;;;;;;1.60;1.20;;;;;;;;;;5053215;28;20233;-33
2024/01/01 07:26:51;;;;;;;1.77;1.20;;;;;;;;;;5048580;28;20301;-34
2024/01/01 07:29:18;;;;;;;1.00;0.77;;;;;;;;;;5052924;28;20234;-36
2024/01/01 07:31:45;;;;;;;3.90;1.20;;;;;;;;;;5048065;28;20217;-34
2024/01/01 07:34:18;;;;;;;2.87;0.93;;;;;;;;;;5052724;28;20225;-33
2024/01/01 07:36:45;;;;;;;2.13;0.70;;;;;;;;;;5054293;28;20256;-35
2024/01/01 07:39:12;;;;;;;3.37;1.20;;;;;;;;;;5041893;28;20245;-33
2024/01/01 07:41:40;;;;;;;3.50;0.83;;;;;;;;;;5049138;28;20264;-30
2024/01/01 07:44:09;;;;;;;6.60;1.17;;;;;;;;;;5052385;28;20313;-32
2024/01/01 07:46:36;;;;;;;3.83;1.20;;;;;;;;;;5047364;28;20300;-31
2024/01/01 07:49:05;;;;;;;3.27;1.00;;;;;;;;;;5049171;28;20237;-37
2024/01/01 07:51:34;;;;;;;1.47;0.70;;;;;;;;;;5041433;28;20212;-32
2024/01/01 07:54:01;;;;;;;3.00;1.10;;;;;;;;;;5052268;28;20316;-34
2024/01/01 07:56:29;;;;;;;3.53;1.13;;;;;;;;;;5052446;28;20198;-30
2024/01/01 07:58:57;;;;;;;3.97;1.10;;;;;;;;;;5043333;28;20235;-33
2024/01/01 08:01:25;;;;;;;1.70;0.90;;;;;;;;;;5045596;28;20206;-36
2024/01/01 08:03:55;;;;;;;2.43;1.07;;;;;;;;;;5050480;28;20271;-38
2024/01/01 08:06:22;;;;;;;1.90;0.60;;;;;;;;;;5051623;28;20290;-39
2024/01/01 08:08:51;;;;;;;2.73;0.90;;;;;;;;;;5049793;28;20198;-31
2024/01/01 08:11:19;;;;;;;3.20;1.00;;;;;;;;;;5049233;28;20289;-31
2024/01/01 08:13:46;;;;;;;3.53;1.10;;;;;;;;;;5051828;28;20222;-34
2024/01/01 08:16:14;;;;;;;2.73;0.60;;;;;;;;;;5050958;28;20755;-35
2024/01/01 08:18:42;;;;;;;5.50;0.73;;;;;;;;;;5045809;28;20329;-34
2024/01/01 08:21:09;;;;;;;2.50;1.07;;;;;;;;;;5049334;28;20232;-34
2024/01/01 08:23:38;;;;;;;5.70;1.03;;;;;;;;;;5052488;28;20206;-35
2024/01/01 08:26:07;;;;;;;4.37;0.77;;;;;;;;;;5052536;28;20749;-40
2024/01/01 08:28:34;;;;;;;4.23;0.93;;;;;;;;;;5053120;28;20224;-35
2024/01/01 08:31:01;;;;;;;1.13;0.87;;;;;;;;;;5050497;28;20292;-36
2024/01/01 08:33:29;;;;;;;3.40;0.83;;;;;;;;;;5051699;28;20230;-36
2024/01/01 08:35:56;;;;;;;2.83;1.03;;;;;;;;;;5052595;28;20285;-32
2024/01/01 08:38:23;;;;;;;5.87;1.43;;;;;;;;;;5041324;28;20257;-38
2024/01/01 08:40:50;;;;;;;1.20;0.80;;;;;;;;;;5047802;28;20216;-34
2024/01/01 08:43:19;;;;;;;4.23;0.80;;;;;;;;;;5049394;28;20236;-37
2024/01/01 08:45:46;;;;;;;4.73;1.23;;;;;;;;;;5047635;28;20218;-37
2024/01/01 08:48:13;;;;;;;2.93;1.10;;;;;;;;;;5038741;28;20210;-34
2024/01/01 08:50:40;;;;;;;3.80;1.47;;;;;;;;;;5046537;28;20297;-34
2024/01/01 08:53:07;;;;;;;4.03;1.03;;;;;;;;;;5047798;28;20202;-33
2024/01/01 08:55:34;;;;;;;3.83;1.10;;;;;;;;;;5042637;28;20222;-32
2024/01/01 08:58:02;;;;;;;2.30;0.97;;;;;;;;;;5051373;28;20233;-32
2024/01/01 09:00:30;;;;;;;2.57;0.93;;;;;;;;;;5040158;28;20237;-36
2024/01/01 09:02:57;;;;;;;3.77;1.13;;;;;;;;;;5046162;28;20297;-34
2024/01/01 09:05:25;;;;;;;2.70;0.90;;;;;;;;;;5048882;28;20313;-34
2024/01/01 09:07:52;;;;;;;4.63;1.20;;;;;;;;;;5043138;28;20198;-34
2024/01/01 09:10:21;;;;;;;2.33;0.83;;;;;;;;;;5044453;28;20202;-36
2024/01/01 09:12:48;;;;;;;9.23;1.27;;;;;;;;;;5048338;28;20198;-33
2024/01/01 09:15:16;;;;;;;5.40;1.33;;;;;;;;;;5052296;28;20317;-34
2024/01/01 09:17:45;;;;;;;3.90;1.03;;;;;;;;;;5051324;28;20217;-30
2024/01/01 09:20:12;;;;;;;2.10;1.20;;;;;;;;;;5050826;28;20202;-32
2024/01/01 09:22:40;;;;;;;2.17;1.00;;;;;;;;;;5050169;28;20205;-32
2024/01/01 09:25:07;;;;;;;5.70;1.10;;;;;;;;;;5049154;28;20221;-36
2024/01/01 09:27:34;;;;;;;1.03;0.77;;;;;;;;;;5051768;28;20209;-30
2024/01/01 09:30:02;;;;;;;2.23;1.00;;;;;;;;;;5045203;28;20210;-30
2024/01/01 09:32:29;;;;;;;4.87;0.90;;;;;;;;;;5050681;28;20214;-35
2024/01/01 09:34:57;;;;;;;3.13;0.90;;;;;;;;;;5052076;28;20297;-30
2024/01/01 09:37:25;;;;;;;2.93;0.90;;;;;;;;;;5049266;28;20241;-38
2024/01/01 09:39:53;;;;;;;4.43;1.40;;;;;;;;;;5046957;28;20202;-31
2024/01/01 09:42:20;;;;;;;0.70;0.70;;;;;;;;;;5046711;28;20206;-33
2024/01/01 09:44:49;;;;;;;2.20;0.83;;;;;;;;;;5052305;28;20228;-30
2024/01/01 09:47:16;;;;;;;2.27;0.80;;;;;;;;;;5043475;28;20204;-33
2024/01/01 09:49:47;;;;;;;2.07;0.80;;;;;;;;;;5046541;28;20210;-35
2024/01/01 09:52:16;;;;;;;1.83;0.90;;;;;;;;;;5046983;28;20213;-33
2024/01/01 09:54:43;;;;;;;1.10;0.53;;;;;;;;;;5051857;28;20284;-32
2024/01/01 09:57:10;;;;;;;3.40;0.93;;;;;;;;;;5051362;28;20197;-33
2024/01/01 09:59:38;;;;;;;3.17;0.50;;;;;;;;;;5047233;28;20230;-34
2024/01/01 10:02:12;;;;;;;4.67;0.70;;;;;;;;;;5043365;28;20275;-34
2024/01/01 10:04:39;;;;;;;1.30;0.77;;;;;;;;;;5051670;28;20224;-34
2024/01/01 10:07:06;;;;;;;5.63;1.07;;;;;;;;;;5052167;28;20210;-33
2024/01/01 10:09:47;;;;;;;0.73;0.73;;;;;;;;;;5043305;28;20245;-35
2024/01/01 10:12:14;;;;;;;2.93;1.17;;;;;;;;;;5048125;28;20201;-35
2024/01/01 10:14:47;;;;;;;1.20;0.60;;;;;;;;;;5043176;28;20249;-33
2024/01/01 10:17:15;;;;;;;2.23;0.80;;;;;;;;;;5050831;28;20232;-32
2024/01/01 10:19:49;;;;;;;2.33;0.50;;;;;;;;;;5041396;28;20202;-31
2024/01/01 10:22:18;;;;;;;0.87;0.57;;;;;;;;;;5042246;28;20675;-40
2024/01/01 10:24:47;;;;;;;1.43;0.80;;;;;;;;;;5051414;28;20214;-36
2024/01/01 10:27:17;;;;;;;1.80;0.70;;;;;;;;;;5051523;28;20668;-34
2024/01/01 10:29:46;;;;;;;1.53;0.60;;;;;;;;;;5049855;28;20202;-32
2024/01/01 10:32:14;;;;;;;0.93;0.60;;;;;;;;;;5042560;28;20214;-35
2024/01/01 10:34:48;;;;;;;1.93;0.80;;;;;;;;;;5043948;28;20225;-33
2024/01/01 10:37:18;;;;;;;2.43;0.70;;;;;;;;;;5056012;28;20205;-34
2024/01/01 10:39:49;;;;;;;5.10;0.70;;;;;;;;;;5046257;28;20288;-34
2024/01/01 10:42:17;;;;;;;3.07;0.80;;;;;;;;;;5055225;28;20208;-37
2024/01/01 10:44:48;;;;;;;7.93;0.80;;;;;;;;;;5047360;28;20747;-36
2024/01/01 10:47:16;;;;;;;2.93;0.73;;;;;;;;;;5055952;28;20267;-34
2024/01/01 10:49:46;;;;;;;0.60;0.43;;;;;;;;;;5044501;28;20281;-34
2024/01/01 10:52:33;;;;;;;3.40;0.73;;;;;;;;;;5050948;28;20248;-32
2024/01/01 10:55:11;;;;;;;1.97;0.60;;;;;;;;;;5055129;28;20226;-33
2024/01/01 10:57:43;;;;;;;2.00;0.90;;;;;;;;;;5054920;28;20214;-36
2024/01/01 11:00:16;;;;;;;2.90;0.60;;;;;;;;;;5048086;28;20270;-39
2024/01/01 11:02:43;;;;;;;2.23;0.80;;;;;;;;;;5048713;28;20206;-37
2024/01/01 11:05:15;;;;;;;2.13;0.83;;;;;;;;;;5054914;28;20336;-36
2024/01/01 11:07:57;;;;;;;3.47;1.00;;;;;;;;;;5054141;28;20206;-33
2024/01/01 11:10:36;;;;;;;3.23;1.10;;;;;;;;;;5047131;28;20285;-34
2024/01/01 11:13:03;;;;;;;3.23;1.13;;;;;;;;;;5052151;28;20232;-34
2024/01/01 11:15:40;;;;;;;3.33;0.80;;;;;;;;;;5053686;28;20222;-37
2024/01/01 11:18:15;;;;;;;3.70;0.77;;;;;;;;;;5052626;28;20216;-32
2024/01/01 11:20:49;;;;;;;2.83;0.70;;;;;;;;;;5047123;28;20284;-33
2024/01/01 11:23:31;;;;;;;1.97;0.90;;;;;;;;;;5042651;28;20209;-30
2024/01/01 11:25:58;;;;;;;1.90;0.83;;;;;;;;;;5047618;28;20226;-32
2024/01/01 11:28:39;;;;;;;1.27;0.80;;;;;;;;;;5054381;28;20267;-36
2024/01/01 11:31:07;;;;;;;6.17;1.50;;;;;;;;;;5044218;28;20212;-34
2024/01/01 11:33:34;;;;;;;4.37;0.93;;;;;;;;;;5052044;28;20358;-32
2024/01/01 11:36:06;;;;;;;3.40;0.80;;;;;;;;;;5053504;28;20291;-35
2024/01/01 11:38:33;;;;;;;3.80;0.80;;;;;;;;;;5053446;28;20233;-30
2024/01/01 11:41:02;;;;;;;3.40;1.30;;;;;;;;;;5049204;28;20293;-31
2024/01/01 11:43:29;;;;;;;1.20;0.90;;;;;;;;;;5050388;28;20260;-29
2024/01/01 11:45:57;;;;;;;5.37;1.23;;;;;;;;;;5053751;28;20316;-35
2024/01/01 11:48:24;;;;;;;3.23;0.90;;;;;;;;;;5048563;28;20217;-31
2024/01/01 11:50:56;;;;;;;3.33;0.70;;;;;;;;;;5043858;28;20206;-37
2024/01/01 11:53:23;;;;;;;3.57;1.37;;;;;;;;;;5044199;28;20217;-32
2024/01/01 11:55:51;;;;;;;2.03;0.80;;;;;;;;;;5054163;28;20230;-33
2024/01/01 11:58:20;;;;;;;2.03;1.10;;;;;;;;;;5054408;28;20222;-35
2024/01/01 12:00:48;;;;;;;3.90;1.67;;;;;;;;;;5048862;28;20210;-33
2024/01/01 12:03:15;;;;;;;4.40;0.73;;;;;;;;;;5053043;28;20213;-33
2024/01/01 12:05:44;;;;;;;1.40;0.60;;;;;;;;;;5051938;28;20867;-36
2024/01/01 12:08:12;;;;;;;3.30;1.00;;;;;;;;;;5051161;28;20210;-33
2024/01/01 12:10:40;;;;;;;3.20;1.30;;;;;;;;;;5051570;28;20202;-37
2024/01/01 12:13:07;;;;;;;4.57;1.17;;;;;;;;;;5052150;28;20296;-33
2024/01/01 12:15:35;;;;;;;2.73;0.97;;;;;;;;;;5052561;28;20229;-31
2024/01/01 12:18:02;;;;;;;4.23;1.13;;;;;;;;;;5043448;28;20202;-35
2024/01/01 12:20:31;;;;;;;4.37;0.90;;;;;;;;;;5051600;28;20297;-37
2024/01/01 12:23:12;;;;;;;2.73;1.00;;;;;;;;;;5051956;28;20274;-37
2024/01/01 12:25:39;;;;;;;5.17;1.00;;;;;;;;;;5043760;28;20305;-32
2024/01/01 12:28:07;;;;;;;3.23;0.97;;;;;;;;;;5051258;28;20233;-34
2024/01/01 12:30:36;;;;;;;4.67;1.10;;;;;;;;;;5050937;28;20202;-34
2024/01/01 12:33:03;;;;;;;5.87;1.20;;;;;;;;;;5050864;28;20266;-32
2024/01/01 12:35:31;;;;;;;4.83;0.87;;;;;;;;;;5045498;28;20316;-30
2024/01/01 12:37:58;;;;;;;4.57;1.10;;;;;;;;;;5051556;28;20316;-35
2024/01/01 12:40:28;;;;;;;2.17;0.53;;;;;;;;;;5052726;28;20248;-37
2024/01/01 12:42:55;;;;;;;5.07;1.13;;;;;;;;;;5047132;28;20216;-31
2024/01/01 12:45:22;;;;;;;8.33;1.67;;;;;;;;;;5051459;28;20221;-33
2024/01/01 12:47:51;;;;;;;3.33;0.97;;;;;;;;;;5050837;28;20202;-33
2024/01/01 12:50:19;;;;;;;4.10;1.50;;;;;;;;;;5050832;28;20220;-31
2024/01/01 12:52:46;;;;;;;3.67;1.17;;;;;;;;;;5035300;28;20217;-30
2024/01/01 12:55:14;;;;;;;1.53;0.60;;;;;;;;;;5044873;28;20236;-35
2024/01/01 12:57:41;;;;;;;3.83;0.80;;;;;;;;;;5050332;28;20244;-35
2024/01/01 13:00:09;;;;;;;4.27;1.47;;;;;;;;;;5048119;28;20209;-36
2024/01/01 13:02:36;;;;;;;2.47;0.80;;;;;;;;;;5038824;28;20214;-33
2024/01/01 13:05:05;;;;;;;3.63;1.13;;;;;;;;;;5050935;28;20317;-37
2024/01/01 13:07:32;;;;;;;0.97;0.70;;;;;;;;;;5051870;28;20207;-29
2024/01/01 13:10:00;;;;;;;3.37;0.77;;;;;;;;;;5048020;28;20206;-33
2024/01/01 13:12:28;;;;;;;1.97;0.93;;;;;;;;;;5049591;28;20213;-36
2024/01/01 13:14:55;;;;;;;2.83;1.00;;;;;;;;;;5042556;28;20276;-30
2024/01/01 13:17:22;;;;;;;7.07;1.13;;;;;;;;;;5042348;28;20210;-34
2024/01/01 13:19:49;;;;;;;7.23;2.00;;;;;;;;;;5048809;28;20220;-34
2024/01/01 13:22:19;;;;;;;2.47;1.00;;;;;;;;;;5050132;28;20209;-31
2024/01/01 13:24:46;;;;;;;2.97;0.80;;;;;;;;;;5049406;28;20232;-32
2024/01/01 13:27:18;;;;;;;3.00;0.47;;;;;;;;;;5044490;28;20293;-33
2024/01/01 13:29:45;;;;;;;3.70;0.83;;;;;;;;;;5048448;28;20221;-34
2024/01/01 13:32:13;;;;;;;2.63;1.30;;;;;;;;;;5049558;28;20202;-31
2024/01/01 13:34:40;;;;;;;9.60;1.33;;;;;;;;;;5045443;28;20244;-33
2024/01/01 13:37:07;;;;;;;2.60;1.10;;;;;;;;;;5046198;28;20230;-35
2024/01/01 13:39:36;;;;;;;5.13;1.10;;;;;;;;;;5047907;28;20311;-34
2024/01/01 13:42:03;;;;;;;3.60;1.07;;;;;;;;;;5048014;28;20206;-33
2024/01/01 13:44:30;;;;;;;6.13;1.20;;;;;;;;;;5041515;28;20333;-31
2024/01/01 13:46:58;;;;;;;2.37;1.10;;;;;;;;;;5044540;28;20253;-32
2024/01/01 13:49:27;;;;;;;2.97;1.00;;;;;;;;;;5042418;28;20240;-34
2024/01/01 13:51:56;;;;;;;4.40;1.07;;;;;;;;;;5048878;28;20206;-33
2024/01/01 13:54:24;;;;;;;5.33;1.67;;;;;;;;;;5048976;28;20234;-34
2024/01/01 13:56:53;;;;;;;2.40;0.97;;;;;;;;;;5041605;28;20651;-38
2024/01/01 13:59:20;;;;;;;2.17;0.93;;;;;;;;;;5043823;28;20242;-34
2024/01/01 14:01:47;;;;;;;2.60;1.17;;;;;;;;;;5049555;28;20210;-38
2024/01/01 14:04:15;;;;;;;5.70;1.40;;;;;;;;;;5047284;28;20355;-33
2024/01/01 14:06:42;;;;;;;5.03;0.87;;;;;;;;;;5038942;28;20198;-32
2024/01/01 14:09:11;;;;;;;2.93;0.93;;;;;;;;;;5049813;28;20213;-33
2024/01/01 14:14:08;;;;;;;2.20;0.50;;;;;;;;;;5026517;28;20305;-31
2024/01/01 14:16:35;;;;;;;3.90;1.23;;;;;;;;;;5026806;28;20222;-32
2024/01/01 14:19:03;;;;;;;5.17;1.30;;;;;;;;;;5029971;28;20270;-33
2024/01/01 14:21:30;;;;;;;5.53;0.90;;;;;;;;;;5032184;28;20202;-35
2024/01/01 14:24:02;;;;;;;6.40;0.80;;;;;;;;;;5032823;28;20207;-29
2024/01/01 14:26:35;;;;;;;3.73;1.20;;;;;;;;;;5022397;28;20291;-33
2024/01/01 14:29:03;;;;;;;3.80;0.70;;;;;;;;;;5030885;28;20199;-34
2024/01/01 14:31:31;;;;;;;3.33;0.97;;;;;;;;;;5032816;28;20206;-34
2024/01/01 14:33:59;;;;;;;2.47;0.80;;;;;;;;;;5026885;28;20294;-32
2024/01/01 14:36:33;;;;;;;2.43;1.13;;;;;;;;;;5029104;28;20233;-37
2024/01/01 14:39:00;;;;;;;2.80;0.90;;;;;;;;;;5024444;28;20293;-35
2024/01/01 14:41:28;;;;;;;4.30;1.40;;;;;;;;;;5032090;28;20203;-31
2024/01/01 14:43:57;;;;;;;6.17;1.20;;;;;;;;;;5025837;28;20271;-34
2024/01/01 14:46:25;;;;;;;3.27;1.13;;;;;;;;;;5030696;28;20587;-32